createdAt,value
2022-10-08T07:04:16.246Z,16.17
2022-10-08T07:06:42.563Z,16.44
2022-10-08T07:21:05.573Z,16.37
2022-10-08T07:35:55.712Z,16.01
2022-10-08T07:50:47.130Z,15.84
2022-10-08T08:05:38.459Z,15.74
2022-10-08T08:20:30.072Z,15.79
2022-10-08T08:35:23.845Z,15.85
2022-10-08T08:50:23.836Z,15.90
2022-10-08T09:05:19.063Z,15.93
2022-10-08T09:20:14.360Z,16.17
2022-10-08T09:35:10.779Z,16.47
2022-10-08T09:50:17.270Z,16.75
2022-10-08T10:05:16.632Z,16.97
2022-10-08T10:20:23.101Z,17.17
2022-10-08T10:35:18.182Z,17.43
2022-10-08T10:50:14.105Z,17.44
2022-10-08T11:20:33.805Z,18.23
2022-10-08T11:35:35.624Z,18.73
2022-10-08T11:50:27.382Z,18.88
2022-10-08T12:05:18.925Z,18.52
2022-10-08T12:20:28.428Z,18.58
2022-10-08T12:35:32.121Z,18.43
2022-10-08T12:50:44.351Z,18.56
2022-10-08T13:05:40.977Z,18.45
2022-10-08T13:20:34.315Z,18.69
2022-10-08T13:35:27.405Z,18.89
2022-10-08T13:50:20.157Z,19.01
2022-10-08T14:05:12.050Z,19.38
2022-10-08T14:34:57.376Z,19.27
2022-10-08T14:49:46.357Z,18.95
2022-10-08T15:04:38.107Z,18.73
2022-10-08T17:19:01.963Z,17.36
2022-10-08T17:33:53.608Z,17.22
2022-10-08T17:48:45.017Z,17.08
2022-10-08T18:03:52.656Z,16.89
2022-10-08T18:18:39.242Z,16.69
2022-10-08T18:33:29.472Z,16.37
2022-10-08T18:48:19.401Z,15.98
2022-10-08T19:03:10.490Z,15.80
2022-10-08T19:18:01.112Z,15.46
2022-10-08T19:32:52.364Z,15.27
2022-10-08T19:47:43.181Z,15.15
2022-10-08T20:02:34.454Z,15.10
2022-10-08T20:17:25.538Z,14.91
2022-10-08T20:32:16.079Z,14.79
2022-10-08T20:47:07.124Z,14.57
2022-10-08T21:01:59.285Z,14.35
2022-10-08T21:16:51.552Z,14.04
2022-10-08T21:31:42.056Z,13.81
2022-10-08T21:46:32.786Z,13.84
2022-10-08T22:01:36.662Z,13.87
2022-10-08T22:16:32.270Z,13.70
2022-10-08T22:31:23.805Z,13.56
2022-10-08T22:46:14.184Z,13.24
2022-10-08T23:01:07.442Z,13.00
2022-10-08T23:16:05.455Z,12.91
2022-10-08T23:31:04.242Z,12.60
2022-10-08T23:45:57.339Z,12.27
